Time;durP1;ratioP1;P1;durP2;ratioP2;P2;SDS_P1;SDS_P2;PMS_P1;PMS_P2;Temp;Humidity;BMP_temperature;BMP_pressure;BME280_temperature;BME280_humidity;BME280_pressure;Samples;Min_cycle;Max_cycle;Signal;HPM_P1;HPM_P2
2021/01/20 00:01:34;;;;;;;;;;;;;;;-18.73;64.75;100691.44;1790668;80;20115;-69
2021/01/20 00:04:02;;;;;;;;;;;;;;;-18.76;64.68;100692.84;1790641;80;21247;-68
2021/01/20 00:06:30;;;;;;;;;;;;;;;-18.80;64.80;100698.37;1791020;80;20117;-68
2021/01/20 00:08:58;;;;;;;;;;;;;;;-18.81;64.97;100697.89;1791038;80;20131;-68
2021/01/20 00:11:26;;;;;;;;;;;;;;;-18.80;65.01;100704.58;1791035;79;20153;-68
2021/01/20 00:13:56;;;;;;;;;;;;;;;-18.81;65.08;100708.69;1791081;78;20131;-69
2021/01/20 00:16:25;;;;;;;;;;;;;;;-18.77;65.21;100714.32;1791071;80;21312;-68
2021/01/20 00:18:52;;;;;;;;;;;;;;;-18.75;65.16;100710.70;1759793;81;20137;-69
2021/01/20 00:21:21;;;;;;;;;;;;;;;-18.73;65.17;100709.20;1790793;80;20112;-69
2021/01/20 00:23:49;;;;;;;;;;;;;;;-18.73;65.11;100711.68;1791049;78;20141;-68
2021/01/20 00:26:17;;;;;;;;;;;;;;;-18.73;65.16;100712.92;1759805;80;20137;-69
2021/01/20 00:28:45;;;;;;;;;;;;;;;-18.70;65.21;100714.38;1786389;79;22075;-69
2021/01/20 00:31:12;;;;;;;;;;;;;;;-18.70;65.11;100711.90;1786223;80;20161;-68
2021/01/20 00:33:40;;;;;;;;;;;;;;;-18.69;64.97;100707.42;1786308;79;20158;-68
2021/01/20 00:36:09;;;;;;;;;;;;;;;-18.69;64.97;100713.62;1786218;80;20250;-68
2021/01/20 00:38:37;;;;;;;;;;;;;;;-18.71;65.05;100715.13;1786306;80;20130;-69
2021/01/20 00:41:05;;;;;;;;;;;;;;;-18.71;65.08;100718.86;1786267;80;21230;-68
2021/01/20 00:43:33;;;;;;;;;;;;;;;-18.70;65.16;100703.20;1786331;80;20523;-68
2021/01/20 00:46:04;;;;;;;;;;;;;;;-18.71;65.11;100699.86;1786314;79;20190;-70
2021/01/20 00:48:32;;;;;;;;;;;;;;;-18.72;65.08;100703.48;1786200;79;20162;-69
2021/01/20 00:50:59;;;;;;;;;;;;;;;-18.74;65.07;100700.02;1786252;80;20154;-69
2021/01/20 00:53:28;;;;;;;;;;;;;;;-18.79;65.05;100696.38;1786276;80;21258;-68
2021/01/20 00:55:56;;;;;;;;;;;;;;;-18.85;65.16;100688.13;1786290;80;20157;-68
2021/01/20 00:58:25;;;;;;;;;;;;;;;-18.86;65.34;100692.60;1786398;80;20503;-68
2021/01/20 01:00:52;;;;;;;;;;;;;;;-18.85;65.26;100692.22;1786242;80;20154;-68
2021/01/20 01:03:21;;;;;;;;;;;;;;;-18.90;65.20;100691.03;1757790;79;20264;-68
2021/01/20 01:05:49;;;;;;;;;;;;;;;-18.94;65.28;100702.36;1786313;80;21399;-68
2021/01/20 01:08:17;;;;;;;;;;;;;;;-18.97;65.29;100700.52;1786197;80;20154;-69
2021/01/20 01:10:47;;;;;;;;;;;;;;;-19.00;65.26;100715.20;1786259;80;20161;-69
2021/01/20 01:13:17;;;;;;;;;;;;;;;-19.06;65.31;100712.27;1784654;80;20729;-69
2021/01/20 01:15:47;;;;;;;;;;;;;;;-19.13;65.31;100714.20;1781988;80;20177;-69
2021/01/20 01:18:15;;;;;;;;;;;;;;;-19.20;65.33;100710.82;1786328;80;22220;-69
2021/01/20 01:20:44;;;;;;;;;;;;;;;-19.26;65.37;100715.83;1786196;80;20173;-69
2021/01/20 01:23:12;;;;;;;;;;;;;;;-19.32;65.60;100728.16;1786267;80;20154;-69
2021/01/20 01:25:41;;;;;;;;;;;;;;;-19.31;65.85;100722.06;1786148;80;20162;-69
2021/01/20 01:28:12;;;;;;;;;;;;;;;-19.26;65.91;100717.44;1810883;76;20148;-69
2021/01/20 01:30:42;;;;;;;;;;;;;;;-19.22;65.83;100724.73;1824308;78;21180;-69
2021/01/20 01:33:10;;;;;;;;;;;;;;;-19.20;65.73;100723.23;1824718;78;20111;-69
2021/01/20 01:35:40;;;;;;;;;;;;;;;-19.20;65.70;100722.84;1824786;78;20111;-69
2021/01/20 01:38:09;;;;;;;;;;;;;;;-19.19;65.66;100717.51;1824717;78;20292;-69
2021/01/20 01:40:41;;;;;;;;;;;;;;;-19.21;65.73;100721.13;1824530;78;20127;-69
2021/01/20 01:43:11;;;;;;;;;;;;;;;-19.20;65.86;100726.95;1823433;78;22066;-69
2021/01/20 01:45:41;;;;;;;;;;;;;;;-19.18;65.94;100723.79;1824652;78;20134;-69
2021/01/20 01:48:09;;;;;;;;;;;;;;;-19.14;66.03;100734.42;1824752;78;20175;-69
2021/01/20 01:50:38;;;;;;;;;;;;;;;-19.11;66.06;100733.41;1824814;77;20517;-69
2021/01/20 01:53:06;;;;;;;;;;;;;;;-19.07;66.06;100733.25;1824760;77;20111;-69
2021/01/20 01:55:36;;;;;;;;;;;;;;;-19.03;66.07;100733.59;1820486;78;21356;-69
2021/01/20 01:58:06;;;;;;;;;;;;;;;-19.01;65.86;100730.84;1822464;78;20439;-69
2021/01/20 02:00:34;;;;;;;;;;;;;;;-19.00;65.90;100738.77;1824833;78;20396;-69
2021/01/20 02:03:04;;;;;;;;;;;;;;;-18.97;65.88;100737.75;1823875;78;20110;-69
2021/01/20 02:05:34;;;;;;;;;;;;;;;-18.97;65.82;100740.23;1824745;78;20154;-69
2021/01/20 02:08:04;;;;;;;;;;;;;;;-18.96;65.94;100740.72;1824748;77;21225;-69
2021/01/20 02:10:34;;;;;;;;;;;;;;;-18.96;65.93;100737.00;1824507;78;20127;-68
2021/01/20 02:13:27;;;;;;;;;;;;;;;-18.95;66.02;100744.07;1824788;78;20381;-68
2021/01/20 02:16:17;;;;;;;;;;;;;;;-18.93;65.96;100740.08;1822745;78;20126;-68
2021/01/20 02:18:51;;;;;;;;;;;;;;;-18.92;66.06;100748.02;1818638;78;20131;-68
2021/01/20 02:21:56;;;;;;;;;;;;;;;-18.90;66.02;100754.33;1824432;78;22184;-68
2021/01/20 02:25:11;;;;;;;;;;;;;;;-18.89;65.88;100758.54;1824718;78;20480;-69
2021/01/20 02:28:10;;;;;;;;;;;;;;;-18.93;65.63;100763.28;1756343;80;20512;-69
2021/01/20 02:30:42;;;;;;;;;;;;;;;-18.94;65.63;100764.03;1840583;77;20659;-69
2021/01/20 02:33:12;;;;;;;;;;;;;;;-18.92;65.42;100760.42;1844461;77;20146;-69
2021/01/20 02:35:45;;;;;;;;;;;;;;;-18.94;65.08;100756.59;1814900;77;21957;-69
2021/01/20 02:38:13;;;;;;;;;;;;;;;-18.97;64.86;100756.37;1846942;77;20507;-69
2021/01/20 02:40:46;;;;;;;;;;;;;;;-19.02;64.90;100757.66;1844342;77;20461;-68
2021/01/20 02:43:32;;;;;;;;;;;;;;;-19.03;65.09;100762.50;1801901;78;20592;-68
2021/01/20 02:46:20;;;;;;;;;;;;;;;-19.02;64.90;100758.03;1760494;80;20504;-68
2021/01/20 02:48:49;;;;;;;;;;;;;;;-19.10;64.88;100759.09;1759888;81;21258;-68
2021/01/20 02:51:22;;;;;;;;;;;;;;;-19.12;64.97;100767.66;1775700;79;20475;-68
2021/01/20 02:53:52;;;;;;;;;;;;;;;-19.17;64.89;100768.07;1797287;79;20111;-70
2021/01/20 02:56:22;;;;;;;;;;;;;;;-19.24;64.89;100760.59;1793068;79;20769;-70
2021/01/20 02:58:52;;;;;;;;;;;;;;;-19.26;64.96;100765.81;1799577;78;20127;-70
2021/01/20 03:01:23;;;;;;;;;;;;;;;-19.26;64.92;100772.02;1759093;79;22086;-70
2021/01/20 03:03:51;;;;;;;;;;;;;;;-19.26;64.93;100775.73;1801747;78;20154;-70
2021/01/20 03:06:20;;;;;;;;;;;;;;;-19.28;64.88;100775.63;1801839;79;20170;-70
2021/01/20 03:08:48;;;;;;;;;;;;;;;-19.26;64.79;100775.36;1801813;78;20636;-70
2021/01/20 03:11:15;;;;;;;;;;;;;;;-19.27;64.68;100765.33;1801872;79;20115;-71
2021/01/20 03:13:43;;;;;;;;;;;;;;;-19.29;64.65;100766.83;1801864;78;21199;-70
2021/01/20 03:16:11;;;;;;;;;;;;;;;-19.31;64.71;100764.23;1801852;79;20115;-69
2021/01/20 03:18:39;;;;;;;;;;;;;;;-19.34;64.78;100769.34;1801825;78;20135;-69
2021/01/20 03:21:07;;;;;;;;;;;;;;;-19.36;64.92;100767.12;1801792;79;20130;-68
2021/01/20 03:23:36;;;;;;;;;;;;;;;-19.35;65.13;100762.66;1801978;78;20465;-69
2021/01/20 03:26:04;;;;;;;;;;;;;;;-19.44;65.07;100755.40;1801836;79;21045;-68
2021/01/20 03:28:32;;;;;;;;;;;;;;;-19.56;65.21;100756.13;1795669;78;20147;-67
2021/01/20 03:31:00;;;;;;;;;;;;;;;-19.64;65.36;100752.73;1790811;78;20526;-68
2021/01/20 03:33:28;;;;;;;;;;;;;;;-19.68;65.46;100744.95;1790902;79;20774;-69
2021/01/20 03:35:56;;;;;;;;;;;;;;;-19.69;65.50;100746.95;1790944;80;20127;-69
2021/01/20 03:38:24;;;;;;;;;;;;;;;-19.74;65.38;100744.50;1790954;80;21961;-68
2021/01/20 03:40:52;;;;;;;;;;;;;;;-19.77;65.44;100746.38;1791038;80;20151;-68
2021/01/20 03:43:19;;;;;;;;;;;;;;;-19.79;65.54;100745.39;1791199;79;20530;-68
2021/01/20 03:45:47;;;;;;;;;;;;;;;-19.81;65.59;100735.73;1759801;81;20162;-67
2021/01/20 03:48:15;;;;;;;;;;;;;;;-19.81;65.69;100733.25;1790852;78;20135;-67
2021/01/20 03:50:43;;;;;;;;;;;;;;;-19.83;65.75;100732.28;1790821;80;23518;-67
2021/01/20 03:53:11;;;;;;;;;;;;;;;-19.84;65.84;100738.36;1790710;80;20531;-67
2021/01/20 03:55:39;;;;;;;;;;;;;;;-19.85;65.88;100749.02;1790779;80;20452;-68
2021/01/20 03:58:07;;;;;;;;;;;;;;;-19.87;66.06;100751.38;1790787;79;20854;-69
2021/01/20 04:00:34;;;;;;;;;;;;;;;-19.84;66.35;100750.38;1790820;80;20385;-69
2021/01/20 04:03:03;;;;;;;;;;;;;;;-19.83;66.50;100745.91;1791098;80;21856;-70
2021/01/20 04:05:41;;;;;;;;;;;;;;;-19.79;66.70;100756.55;1789355;80;20535;-69
2021/01/20 04:08:09;;;;;;;;;;;;;;;-19.81;66.78;100748.13;1791079;80;20186;-69
2021/01/20 04:10:37;;;;;;;;;;;;;;;-19.82;67.05;100748.02;1791041;79;20157;-69
2021/01/20 04:13:05;;;;;;;;;;;;;;;-19.82;67.23;100741.81;1791085;80;20131;-69
2021/01/20 04:15:33;;;;;;;;;;;;;;;-19.82;67.34;100742.67;1791082;78;21358;-69
2021/01/20 04:18:01;;;;;;;;;;;;;;;-19.79;67.45;100742.91;1791100;78;20836;-69
2021/01/20 04:20:29;;;;;;;;;;;;;;;-19.77;67.38;100746.74;1791060;78;20178;-70
2021/01/20 04:22:57;;;;;;;;;;;;;;;-19.75;67.41;100744.00;1791087;80;20149;-69
2021/01/20 04:25:28;;;;;;;;;;;;;;;-19.72;67.38;100747.58;1791037;80;20143;-70
2021/01/20 04:27:56;;;;;;;;;;;;;;;-19.69;67.40;100750.66;1791007;79;21241;-70
2021/01/20 04:30:24;;;;;;;;;;;;;;;-19.65;67.45;100751.01;1759774;81;20137;-70
2021/01/20 04:32:52;;;;;;;;;;;;;;;-19.62;67.38;100750.00;1790781;80;20130;-70
2021/01/20 04:35:21;;;;;;;;;;;;;;;-19.61;67.39;100751.73;1790699;78;20135;-70
2021/01/20 04:37:49;;;;;;;;;;;;;;;-19.59;67.44;100758.05;1791112;80;20137;-70
2021/01/20 04:40:16;;;;;;;;;;;;;;;-19.58;67.48;100758.50;1791041;80;21193;-71
2021/01/20 04:42:46;;;;;;;;;;;;;;;-19.56;67.47;100754.89;1790980;80;20151;-71
2021/01/20 04:45:14;;;;;;;;;;;;;;;-19.55;67.34;100758.73;1791034;80;20523;-71
2021/01/20 04:47:42;;;;;;;;;;;;;;;-19.55;67.30;100752.53;1791036;80;20115;-71
2021/01/20 04:50:12;;;;;;;;;;;;;;;-19.56;67.22;100766.91;1791005;79;20133;-70
2021/01/20 04:52:42;;;;;;;;;;;;;;;-19.58;67.27;100765.94;1791012;80;21249;-71
2021/01/20 04:55:11;;;;;;;;;;;;;;;-19.59;67.21;100763.00;1791126;79;20591;-71
2021/01/20 04:57:39;;;;;;;;;;;;;;;-19.61;67.29;100768.22;1791069;80;20143;-70
2021/01/20 05:00:08;;;;;;;;;;;;;;;-19.61;67.42;100767.84;1791031;79;20113;-69
2021/01/20 05:02:36;;;;;;;;;;;;;;;-19.58;67.45;100772.51;1791035;80;20115;-69
2021/01/20 05:05:05;;;;;;;;;;;;;;;-19.56;67.77;100780.55;1791016;79;21784;-70
2021/01/20 05:07:34;;;;;;;;;;;;;;;-19.52;67.74;100777.55;1759895;81;20483;-69
2021/01/20 05:10:03;;;;;;;;;;;;;;;-19.48;67.64;100774.89;1790732;80;20151;-69
2021/01/20 05:12:36;;;;;;;;;;;;;;;-19.45;68.09;100787.52;1790996;78;20137;-69
2021/01/20 05:15:10;;;;;;;;;;;;;;;-19.42;68.45;100785.27;1791089;78;20369;-69
2021/01/20 05:17:38;;;;;;;;;;;;;;;-19.37;68.16;100785.23;1791029;79;21261;-69
2021/01/20 05:20:07;;;;;;;;;;;;;;;-19.35;67.84;100789.94;1787743;80;20389;-69
2021/01/20 05:22:35;;;;;;;;;;;;;;;-19.36;67.84;100790.69;1780066;80;20114;-69
2021/01/20 05:25:04;;;;;;;;;;;;;;;-19.36;67.54;100789.45;1765174;80;21025;-69
2021/01/20 05:27:33;;;;;;;;;;;;;;;-19.39;67.24;100790.46;1791035;79;20153;-68
2021/01/20 05:30:05;;;;;;;;;;;;;;;-19.44;66.80;100792.59;1790561;79;22146;-69
2021/01/20 05:32:33;;;;;;;;;;;;;;;-19.50;66.66;100796.27;1763795;80;20153;-69
2021/01/20 05:35:04;;;;;;;;;;;;;;;-19.57;66.50;100788.74;1790392;80;20135;-68
2021/01/20 05:37:46;;;;;;;;;;;;;;;-19.61;66.46;100794.25;1790410;80;20150;-68
2021/01/20 05:40:17;;;;;;;;;;;;;;;-19.63;66.46;100804.43;1790478;80;20163;-67
2021/01/20 05:42:51;;;;;;;;;;;;;;;-19.64;66.43;100799.84;1734392;81;21211;-67
2021/01/20 05:45:20;;;;;;;;;;;;;;;-19.66;66.34;100805.06;1763773;81;20114;-67
2021/01/20 05:48:05;;;;;;;;;;;;;;;-19.70;66.28;100798.52;1763811;81;20137;-67
2021/01/20 05:50:35;;;;;;;;;;;;;;;-19.75;66.24;100809.32;1790404;79;20601;-67
2021/01/20 05:53:04;;;;;;;;;;;;;;;-19.77;66.32;100814.91;1763808;80;20133;-67
2021/01/20 05:55:32;;;;;;;;;;;;;;;-19.77;66.58;100809.95;1790378;80;21193;-68
2021/01/20 05:58:01;;;;;;;;;;;;;;;-19.73;66.78;100806.95;1763699;81;20719;-66
2021/01/20 06:00:30;;;;;;;;;;;;;;;-19.70;67.09;100804.34;1780559;78;20529;-72
2021/01/20 06:02:58;;;;;;;;;;;;;;;-19.69;67.70;100807.31;1777373;78;20608;-72
2021/01/20 06:05:27;;;;;;;;;;;;;;;-19.68;67.68;100800.36;1779549;80;20203;-73
2021/01/20 06:07:55;;;;;;;;;;;;;;;-19.67;67.64;100798.38;1789664;79;21370;-68
2021/01/20 06:10:23;;;;;;;;;;;;;;;-19.69;67.77;100798.63;1775030;78;20192;-72
2021/01/20 06:12:53;;;;;;;;;;;;;;;-19.69;67.89;100796.53;1785882;80;20164;-67
2021/01/20 06:15:23;;;;;;;;;;;;;;;-19.71;68.23;100798.02;1755927;80;20160;-73
2021/01/20 06:17:51;;;;;;;;;;;;;;;-19.68;68.61;100803.22;1782403;78;20185;-71
2021/01/20 06:20:23;;;;;;;;;;;;;;;-19.66;68.83;100803.82;1793551;80;21200;-71
2021/01/20 06:22:52;;;;;;;;;;;;;;;-19.65;69.22;100806.79;1788943;78;20214;-65
2021/01/20 06:25:26;;;;;;;;;;;;;;;-19.63;69.47;100806.53;1788514;80;20166;-66
2021/01/20 06:28:02;;;;;;;;;;;;;;;-19.57;69.74;100808.95;1778892;78;20235;-73
2021/01/20 06:30:38;;;;;;;;;;;;;;;-19.47;69.93;100808.86;1828499;78;20524;-68
2021/01/20 06:33:08;;;;;;;;;;;;;;;-19.37;70.04;100814.62;1832113;76;22115;-67
2021/01/20 06:35:42;;;;;;;;;;;;;;;-19.30;70.06;100814.71;1844123;76;20135;-67
2021/01/20 06:38:32;;;;;;;;;;;;;;;-19.29;70.04;100821.41;1838336;76;20273;-69
2021/01/20 06:41:10;;;;;;;;;;;;;;;-19.27;70.15;100823.25;1837976;76;20910;-70
2021/01/20 06:43:48;;;;;;;;;;;;;;;-19.17;70.37;100824.77;1836685;78;20162;-71
2021/01/20 06:46:21;;;;;;;;;;;;;;;-19.08;70.57;100821.72;1823841;78;21350;-67
2021/01/20 06:49:00;;;;;;;;;;;;;;;-18.98;70.72;100819.55;1823841;78;20179;-69
2021/01/20 06:51:28;;;;;;;;;;;;;;;-18.92;70.92;100824.58;1819276;78;20503;-66
2021/01/20 06:54:10;;;;;;;;;;;;;;;-18.83;71.15;100828.49;1814382;78;20224;-66
2021/01/20 06:56:40;;;;;;;;;;;;;;;-18.80;71.17;100825.86;1827773;78;20388;-65
2021/01/20 06:59:24;;;;;;;;;;;;;;;-18.72;71.21;100830.11;1812927;79;21331;-71
2021/01/20 07:02:08;;;;;;;;;;;;;;;-18.68;71.15;100823.37;1817565;78;20128;-67
2021/01/20 07:04:53;;;;;;;;;;;;;;;-18.64;71.33;100826.56;1810071;76;20283;-64
2021/01/20 07:07:51;;;;;;;;;;;;;;;-18.59;71.35;100833.55;1823567;78;20604;-69
2021/01/20 07:10:21;;;;;;;;;;;;;;;-18.54;71.53;100826.44;1815938;78;20228;-67
2021/01/20 07:13:09;;;;;;;;;;;;;;;-18.48;71.71;100833.09;1829912;78;22255;-67
2021/01/20 07:15:38;;;;;;;;;;;;;;;-18.45;71.82;100840.77;1829155;78;20497;-75
2021/01/20 07:18:07;;;;;;;;;;;;;;;-18.38;72.08;100842.90;1829471;77;20395;-70
2021/01/20 07:20:36;;;;;;;;;;;;;;;-18.29;72.23;100843.55;1812592;76;20149;-70
2021/01/20 07:23:04;;;;;;;;;;;;;;;-18.18;72.12;100843.08;1838151;78;20485;-68
2021/01/20 07:25:33;;;;;;;;;;;;;;;-18.10;72.00;100843.62;1796618;78;39361;-70
2021/01/20 07:28:01;;;;;;;;;;;;;;;-17.99;72.00;100846.48;1815052;78;20292;-68
2021/01/20 07:30:30;;;;;;;;;;;;;;;-17.85;72.07;100855.73;1823741;76;20157;-67
2021/01/20 07:32:57;;;;;;;;;;;;;;;-17.70;71.75;100854.32;1836935;78;20183;-66
2021/01/20 07:35:27;;;;;;;;;;;;;;;-17.54;71.59;100851.20;1842171;78;20524;-66
2021/01/20 07:38:02;;;;;;;;;;;;;;;-17.36;70.95;100856.56;1773608;78;23127;-68
2021/01/20 07:40:33;;;;;;;;;;;;;;;-17.18;71.02;100850.31;1833872;78;20932;-69
2021/01/20 07:43:03;;;;;;;;;;;;;;;-16.95;70.79;100855.59;1833031;78;20313;-68
2021/01/20 07:45:36;;;;;;;;;;;;;;;-16.72;70.62;100852.95;1832682;78;20655;-68
2021/01/20 07:48:06;;;;;;;;;;;;;;;-16.44;70.42;100866.80;1831155;76;20205;-67
2021/01/20 07:50:38;;;;;;;;;;;;;;;-16.20;70.08;100869.59;1827725;78;21420;-69
2021/01/20 07:53:06;;;;;;;;;;;;;;;-15.98;69.67;100867.17;1819015;76;20600;-69
2021/01/20 07:55:34;;;;;;;;;;;;;;;-15.77;69.47;100868.52;1824653;76;20133;-68
2021/01/20 07:58:04;;;;;;;;;;;;;;;-15.59;68.70;100860.89;1809735;77;20478;-65
2021/01/20 08:00:43;;;;;;;;;;;;;;;-15.44;68.26;100865.06;1809794;76;20165;-71
2021/01/20 08:03:11;;;;;;;;;;;;;;;-15.30;68.17;100860.52;1825191;76;21110;-69
2021/01/20 08:05:41;;;;;;;;;;;;;;;-15.07;68.11;100874.35;1841422;76;20186;-68
2021/01/20 08:08:10;;;;;;;;;;;;;;;-14.93;67.30;100870.66;1818448;78;20126;-69
2021/01/20 08:10:40;;;;;;;;;;;;;;;-14.87;66.85;100876.40;1814414;76;20167;-67
2021/01/20 08:13:09;;;;;;;;;;;;;;;-14.82;66.80;100875.42;1830521;78;20237;-69
2021/01/20 08:15:40;;;;;;;;;;;;;;;-14.75;66.89;100870.84;1832550;78;22032;-67
2021/01/20 08:18:16;;;;;;;;;;;;;;;-14.63;66.99;100869.44;1831790;78;20135;-71
2021/01/20 08:20:46;;;;;;;;;;;;;;;-14.51;67.10;100871.39;1827965;78;20153;-68
2021/01/20 08:23:17;;;;;;;;;;;;;;;-14.38;68.42;100867.50;1833610;76;20818;-72
2021/01/20 08:25:45;;;;;;;;;;;;;;;-14.20;67.64;100875.19;1807042;78;20178;-69
2021/01/20 08:28:14;;;;;;;;;;;;;;;-14.06;67.38;100865.56;1842403;78;21182;-68
2021/01/20 08:30:42;;;;;;;;;;;;;;;-13.89;67.12;100866.08;1833637;77;20278;-67
2021/01/20 08:33:10;;;;;;;;;;;;;;;-13.73;66.62;100873.17;1829464;76;20271;-67
2021/01/20 08:35:39;;;;;;;;;;;;;;;-13.64;66.21;100868.28;1807488;78;20182;-68
2021/01/20 08:38:09;;;;;;;;;;;;;;;-13.60;65.94;100874.31;1829684;78;20146;-71
2021/01/20 08:40:37;;;;;;;;;;;;;;;-13.55;65.78;100872.50;1836385;78;21349;-69
2021/01/20 08:43:07;;;;;;;;;;;;;;;-13.51;65.53;100875.64;1837601;77;20127;-69
2021/01/20 08:45:37;;;;;;;;;;;;;;;-13.44;65.75;100877.22;1819418;76;20213;-68
2021/01/20 08:48:06;;;;;;;;;;;;;;;-13.36;65.62;100880.61;1823681;76;20184;-69
2021/01/20 08:50:37;;;;;;;;;;;;;;;-13.31;65.42;100877.09;1837170;78;20412;-67
2021/01/20 08:53:08;;;;;;;;;;;;;;;-13.31;65.66;100874.59;1837043;76;23517;-68
2021/01/20 08:55:39;;;;;;;;;;;;;;;-13.31;65.43;100880.85;1830899;76;20320;-69
2021/01/20 09:01:17;;;;;;;;;;;;;;;-13.24;65.78;100876.64;1775427;79;20173;-71
2021/01/20 09:03:57;;;;;;;;;;;;;;;-13.16;65.63;100869.09;1743926;80;20213;-74
2021/01/20 09:06:26;;;;;;;;;;;;;;;-13.15;65.55;100872.91;1753863;80;22198;-73
2021/01/20 09:08:54;;;;;;;;;;;;;;;-13.14;65.67;100870.87;1762494;79;20188;-69
2021/01/20 09:11:23;;;;;;;;;;;;;;;-13.12;65.51;100873.84;1776413;79;20263;-69
2021/01/20 09:13:53;;;;;;;;;;;;;;;-13.11;65.75;100870.17;1752843;80;20211;-73
2021/01/20 09:16:30;;;;;;;;;;;;;;;-13.12;65.65;100874.71;1753878;81;20185;-69
2021/01/20 09:18:58;;;;;;;;;;;;;;;-13.17;65.48;100870.74;1755296;81;21201;-69
2021/01/20 09:21:27;;;;;;;;;;;;;;;-13.23;65.73;100873.35;1784113;79;20181;-70
2021/01/20 09:23:58;;;;;;;;;;;;;;;-13.26;65.86;100864.42;1784126;79;20161;-70
2021/01/20 09:26:27;;;;;;;;;;;;;;;-13.31;66.15;100861.67;1781821;79;20497;-69
2021/01/20 09:28:55;;;;;;;;;;;;;;;-13.31;66.39;100867.94;1791418;79;20134;-69
2021/01/20 09:31:24;;;;;;;;;;;;;;;-13.33;66.52;100859.87;1799224;79;21193;-69
2021/01/20 09:33:52;;;;;;;;;;;;;;;-13.32;66.58;100866.60;1771615;79;20212;-69
2021/01/20 09:36:20;;;;;;;;;;;;;;;-13.35;66.72;100862.68;1771262;79;20137;-70
2021/01/20 09:38:49;;;;;;;;;;;;;;;-13.38;66.82;100856.26;1755056;79;20165;-70
2021/01/20 09:41:17;;;;;;;;;;;;;;;-13.37;67.01;100858.84;1755934;79;20212;-68
2021/01/20 09:43:45;;;;;;;;;;;;;;;-13.40;67.12;100862.83;1749598;81;21208;-69
2021/01/20 09:46:13;;;;;;;;;;;;;;;-13.38;67.40;100858.77;1749342;81;20212;-72
2021/01/20 09:48:41;;;;;;;;;;;;;;;-13.34;67.53;100857.75;1765598;79;20205;-71
2021/01/20 09:51:09;;;;;;;;;;;;;;;-13.27;67.40;100865.20;1741598;81;20234;-69
2021/01/20 09:53:38;;;;;;;;;;;;;;;-13.24;67.41;100862.86;1742680;82;20278;-69
2021/01/20 09:56:06;;;;;;;;;;;;;;;-13.19;67.40;100863.53;1727394;82;21665;-72
2021/01/20 09:58:41;;;;;;;;;;;;;;;-13.17;67.39;100854.84;1720438;82;20223;-72
2021/01/20 10:01:08;;;;;;;;;;;;;;;-13.18;67.36;100853.98;1759265;80;20137;-71
2021/01/20 10:03:37;;;;;;;;;;;;;;;-13.19;67.36;100855.16;1760695;79;20456;-71
2021/01/20 10:06:08;;;;;;;;;;;;;;;-13.18;67.84;100847.72;1746241;81;20180;-71
2021/01/20 10:08:37;;;;;;;;;;;;;;;-13.14;67.74;100847.45;1763563;79;21373;-70
2021/01/20 10:11:07;;;;;;;;;;;;;;;-13.12;67.95;100847.53;1704656;84;20606;-71
2021/01/20 10:13:37;;;;;;;;;;;;;;;-13.08;68.01;100850.67;1727228;81;20133;-66
2021/01/20 10:16:05;;;;;;;;;;;;;;;-13.07;67.72;100841.98;1769153;79;20188;-68
2021/01/20 10:18:33;;;;;;;;;;;;;;;-13.06;67.79;100844.09;1768064;81;20131;-67
2021/01/20 10:21:01;;;;;;;;;;;;;;;-13.04;67.76;100850.91;1768312;81;22224;-69
2021/01/20 10:23:31;;;;;;;;;;;;;;;-13.03;67.90;100838.84;1731036;81;20621;-70
2021/01/20 10:26:00;;;;;;;;;;;;;;;-12.97;67.99;100839.55;1751063;79;20143;-69
2021/01/20 10:28:28;;;;;;;;;;;;;;;-12.92;68.02;100834.38;1738416;79;20529;-70
2021/01/20 10:30:56;;;;;;;;;;;;;;;-12.89;67.95;100837.91;1742198;80;20915;-69
2021/01/20 10:33:24;;;;;;;;;;;;;;;-12.84;68.19;100839.00;1761630;79;21182;-72
2021/01/20 10:35:52;;;;;;;;;;;;;;;-12.78;68.00;100840.92;1766089;81;20179;-67
2021/01/20 10:38:22;;;;;;;;;;;;;;;-12.72;67.74;100843.73;1743100;80;20184;-72
2021/01/20 10:40:54;;;;;;;;;;;;;;;-12.70;67.70;100830.88;1768374;81;20206;-70
2021/01/20 10:43:24;;;;;;;;;;;;;;;-12.66;67.65;100831.50;1760687;80;20559;-72
2021/01/20 10:45:53;;;;;;;;;;;;;;;-12.61;67.72;100830.09;1768245;81;21208;-72
2021/01/20 10:48:21;;;;;;;;;;;;;;;-12.54;67.77;100825.84;1778879;80;20213;-68
2021/01/20 10:50:51;;;;;;;;;;;;;;;-12.50;67.50;100823.95;1783683;80;20473;-69
2021/01/20 10:53:26;;;;;;;;;;;;;;;-12.47;67.38;100821.59;1777582;80;20297;-67
2021/01/20 11:55:29;;;;;;;;;;;;;;;-11.86;65.83;100815.66;1783900;80;20214;-68
2021/01/20 11:57:57;;;;;;;;;;;;;;;-11.86;65.80;100813.55;1790253;80;20138;-65
2021/01/20 12:00:25;;;;;;;;;;;;;;;-11.86;65.57;100810.64;1765843;79;20193;-65
2021/01/20 12:02:53;;;;;;;;;;;;;;;-11.84;65.85;100814.48;1750408;80;22154;-67
2021/01/20 12:05:22;;;;;;;;;;;;;;;-11.80;65.77;100812.58;1768892;79;20158;-70
2021/01/20 12:07:52;;;;;;;;;;;;;;;-11.78;65.31;100813.91;1767287;80;20530;-67
2021/01/20 12:10:21;;;;;;;;;;;;;;;-11.78;65.08;100824.81;1751183;80;20333;-69
2021/01/20 12:12:49;;;;;;;;;;;;;;;-11.80;64.97;100817.59;1767336;80;20132;-70
2021/01/20 12:15:17;;;;;;;;;;;;;;;-11.80;64.97;100820.97;1766626;80;21196;-73
2021/01/20 12:17:45;;;;;;;;;;;;;;;-11.78;64.76;100816.41;1775458;80;20220;-68
2021/01/20 12:20:15;;;;;;;;;;;;;;;-11.81;64.67;100810.46;1771311;80;20954;-69
2021/01/20 12:22:43;;;;;;;;;;;;;;;-11.82;64.60;100809.13;1762694;80;20190;-67
2021/01/20 12:25:11;;;;;;;;;;;;;;;-11.86;64.39;100807.27;1772684;80;20127;-68
2021/01/20 12:27:40;;;;;;;;;;;;;;;-11.87;64.56;100808.92;1751843;80;21632;-64
2021/01/20 12:30:08;;;;;;;;;;;;;;;-11.86;64.36;100815.66;1750421;80;20205;-66
2021/01/20 12:32:37;;;;;;;;;;;;;;;-11.85;64.16;100815.27;1747645;80;20645;-65
2021/01/20 12:35:06;;;;;;;;;;;;;;;-11.83;64.17;100821.23;1759486;80;20757;-67
2021/01/20 12:37:34;;;;;;;;;;;;;;;-11.83;63.69;100815.81;1767048;80;20134;-67
2021/01/20 12:40:04;;;;;;;;;;;;;;;-11.86;63.90;100813.16;1729089;82;22223;-69
2021/01/20 12:42:32;;;;;;;;;;;;;;;-11.86;64.19;100818.17;1717879;83;20215;-68
2021/01/20 12:45:00;;;;;;;;;;;;;;;-11.83;64.05;100809.92;1731808;81;20735;-69
2021/01/20 12:47:28;;;;;;;;;;;;;;;-11.83;64.15;100809.92;1734405;81;20197;-70
2021/01/20 12:49:57;;;;;;;;;;;;;;;-11.82;63.99;100814.16;1735920;81;20249;-69
2021/01/20 12:52:24;;;;;;;;;;;;;;;-11.80;64.01;100820.97;1730173;81;21266;-68
2021/01/20 12:54:52;;;;;;;;;;;;;;;-11.79;63.74;100816.81;1689140;83;20601;-70
2021/01/20 12:57:22;;;;;;;;;;;;;;;-11.77;63.83;100806.44;1760317;80;20189;-69
2021/01/20 12:59:51;;;;;;;;;;;;;;;-11.77;63.75;100809.34;1761349;80;20696;-66
2021/01/20 13:02:19;;;;;;;;;;;;;;;-11.80;63.63;100794.61;1763640;80;20190;-68
2021/01/20 13:04:48;;;;;;;;;;;;;;;-11.81;63.63;100791.62;1765527;79;22076;-69
2021/01/20 13:07:16;;;;;;;;;;;;;;;-11.81;63.65;100790.77;1764120;80;20174;-71
2021/01/20 13:09:45;;;;;;;;;;;;;;;-11.80;63.54;100800.88;1770229;80;20186;-70
2021/01/20 13:12:13;;;;;;;;;;;;;;;-11.82;63.61;100805.37;1767248;80;20157;-71
2021/01/20 13:14:41;;;;;;;;;;;;;;;-11.85;63.54;100797.69;1764669;80;20253;-71
2021/01/20 13:17:09;;;;;;;;;;;;;;;-11.84;63.60;100801.92;1762090;80;21222;-71
2021/01/20 13:19:43;;;;;;;;;;;;;;;-11.86;63.58;100799.34;1773518;80;20119;-71
2021/01/20 13:22:11;;;;;;;;;;;;;;;-11.88;63.80;100802.18;1763502;79;20659;-72
2021/01/20 13:24:39;;;;;;;;;;;;;;;-11.88;63.91;100802.58;1761442;80;20205;-70
2021/01/20 13:27:08;;;;;;;;;;;;;;;-11.91;63.91;100810.83;1761266;80;20208;-70
2021/01/20 13:29:38;;;;;;;;;;;;;;;-11.90;64.02;100813.80;1761892;80;21439;-72
2021/01/20 13:32:13;;;;;;;;;;;;;;;-11.90;63.96;100809.17;1728934;81;20577;-70
2021/01/20 13:34:44;;;;;;;;;;;;;;;-11.90;64.06;100812.94;1757625;80;20161;-69
2021/01/20 13:37:18;;;;;;;;;;;;;;;-11.91;64.19;100812.48;1756808;81;20645;-71
2021/01/20 13:39:50;;;;;;;;;;;;;;;-11.93;63.90;100806.52;1756432;79;20185;-68
2021/01/20 13:42:20;;;;;;;;;;;;;;;-11.94;63.93;100806.91;1766673;79;21208;-68
2021/01/20 13:44:49;;;;;;;;;;;;;;;-11.97;63.67;100808.03;1766305;79;20204;-75
2021/01/20 13:47:30;;;;;;;;;;;;;;;-12.01;63.52;100811.61;1761135;81;20219;-72